Terminal Aerodrome Forecast
Issued by NWS Grand Forks, ND

Home | Current Version | Previous Version | Graphics & Text | Print | Product List | Glossary On
Versions: 1 2 3 4 5 6 7 8 9 10 11 12 13 14
000
FTUS43 KFGF 231700
TAFFAR
TAF
KFAR 231736Z 2318/2418 35015KT 5SM BR BKN004
      TEMPO 2319/2323 2SM -DZ BR
     FM232300 33017KT 4SM BR OVC004
     FM240900 33008KT P6SM OVC005=

USA.gov is the U.S. government's official web portal to all federal, state and local government web resources and services.